createdAt,value
2022-12-31T00:00:55.414Z,99949.25
2022-12-31T00:05:57.955Z,99939.97
2022-12-31T00:11:00.450Z,99956.97
2022-12-31T00:16:12.239Z,99959.34
2022-12-31T00:21:15.879Z,99961.75
2022-12-31T00:26:21.904Z,99960.69
2022-12-31T00:31:27.846Z,99964.63
2022-12-31T00:36:32.851Z,99965.91
2022-12-31T00:41:35.809Z,99967.00
2022-12-31T00:51:41.372Z,99968.53
2022-12-31T00:56:43.870Z,99985.38
2022-12-31T01:01:47.955Z,100011.69
2022-12-31T01:06:50.562Z,100008.38
2022-12-31T01:11:53.135Z,100018.78
2022-12-31T01:16:56.936Z,100022.25
2022-12-31T01:21:59.466Z,100037.31
2022-12-31T01:27:01.957Z,100035.50
2022-12-31T01:32:06.430Z,100046.09
2022-12-31T01:37:08.979Z,100049.00
2022-12-31T01:42:13.036Z,100059.69
2022-12-31T01:47:21.005Z,100078.34
2022-12-31T01:52:28.175Z,100077.09
2022-12-31T01:57:31.817Z,100063.44
2022-12-31T02:02:35.743Z,100052.28
2022-12-31T02:07:38.851Z,100064.69
2022-12-31T02:12:41.739Z,100062.19
2022-12-31T02:18:09.039Z,100082.63
2022-12-31T02:23:32.460Z,100077.63
2022-12-31T02:28:54.081Z,100074.13
2022-12-31T02:34:07.263Z,100071.63
2022-12-31T02:39:11.565Z,100085.66
2022-12-31T02:44:25.294Z,100083.38
2022-12-31T02:49:40.582Z,100089.72
2022-12-31T02:54:49.645Z,100075.13
2022-12-31T03:00:16.021Z,100069.75
2022-12-31T03:05:23.282Z,100067.81
2022-12-31T03:10:26.006Z,100075.63
2022-12-31T03:15:30.890Z,100067.81
2022-12-31T03:20:54.466Z,100071.31
2022-12-31T03:25:58.615Z,100075.00
2022-12-31T03:31:02.921Z,100078.56
2022-12-31T03:36:09.611Z,100085.06
2022-12-31T03:41:12.529Z,100078.25
2022-12-31T03:46:15.071Z,100067.91
2022-12-31T03:51:18.919Z,100068.09
2022-12-31T03:56:21.398Z,100065.59
2022-12-31T04:01:25.349Z,100069.16
2022-12-31T04:06:29.233Z,100069.16
2022-12-31T04:11:31.748Z,100067.50
2022-12-31T04:16:34.338Z,100068.53
2022-12-31T04:21:38.355Z,100057.19
2022-12-31T04:26:40.876Z,100066.00
2022-12-31T04:31:43.699Z,100068.84
2022-12-31T04:41:58.033Z,100068.47
2022-12-31T04:47:00.533Z,100076.47
2022-12-31T04:52:03.047Z,100060.75
2022-12-31T04:57:07.137Z,100062.56
2022-12-31T05:02:09.847Z,100066.06
2022-12-31T05:07:12.500Z,100067.75
2022-12-31T05:12:16.341Z,100074.66
2022-12-31T05:17:20.648Z,100084.34
2022-12-31T05:22:32.324Z,100100.03
2022-12-31T05:27:37.748Z,100084.94
2022-12-31T05:32:40.733Z,100088.34
2022-12-31T05:37:43.226Z,100108.38
2022-12-31T05:42:47.053Z,100115.22
2022-12-31T05:47:49.624Z,100123.09
2022-12-31T05:52:52.302Z,100122.34
2022-12-31T05:57:56.131Z,100128.47
2022-12-31T06:02:58.662Z,100123.94
2022-12-31T06:08:01.276Z,100130.88
2022-12-31T06:13:05.198Z,100116.91
2022-12-31T06:18:08.417Z,100122.28
2022-12-31T06:23:10.898Z,100115.56
2022-12-31T06:28:20.184Z,100105.09
2022-12-31T06:33:22.930Z,100106.09
2022-12-31T06:38:25.686Z,100101.72
2022-12-31T06:43:29.507Z,100085.75
2022-12-31T06:48:32.389Z,100076.94
2022-12-31T06:53:35.289Z,100079.56
2022-12-31T06:58:39.694Z,100088.34
2022-12-31T07:03:49.901Z,100098.03
2022-12-31T07:09:02.227Z,100103.22
2022-12-31T07:14:15.036Z,100091.72
2022-12-31T07:19:29.289Z,100103.03
2022-12-31T07:24:32.235Z,100110.78
2022-12-31T07:29:52.788Z,100106.38
2022-12-31T07:35:04.418Z,100107.31
2022-12-31T07:40:16.459Z,100107.31
2022-12-31T07:45:25.558Z,100115.22
2022-12-31T07:50:28.651Z,100110.00
2022-12-31T07:55:31.135Z,100125.03
2022-12-31T08:00:35.142Z,100126.91
2022-12-31T08:05:50.561Z,100134.84
2022-12-31T08:11:04.396Z,100129.47
2022-12-31T08:16:11.547Z,100113.75
2022-12-31T08:21:34.504Z,100107.56
2022-12-31T08:26:40.995Z,100090.09
2022-12-31T08:31:55.846Z,100075.25
2022-12-31T08:37:04.398Z,100065.59
2022-12-31T08:42:21.506Z,100082.19
2022-12-31T08:47:38.169Z,100113.00
2022-12-31T08:52:41.580Z,100131.25
2022-12-31T08:57:53.707Z,100115.63
2022-12-31T09:03:13.038Z,100106.09
2022-12-31T09:08:22.424Z,100113.34
2022-12-31T09:13:33.030Z,100116.09
2022-12-31T09:18:41.355Z,100121.50
2022-12-31T09:23:44.463Z,100126.81
2022-12-31T09:28:54.659Z,100117.44
2022-12-31T09:34:07.725Z,100119.34
2022-12-31T09:39:17.513Z,100112.53
2022-12-31T09:45:10.577Z,100127.59
2022-12-31T09:50:51.110Z,100139.22
2022-12-31T09:55:58.235Z,100162.16
2022-12-31T10:01:07.695Z,100165.09
2022-12-31T10:06:22.945Z,100161.81
2022-12-31T10:11:34.677Z,100160.16
2022-12-31T10:16:59.539Z,100145.47
2022-12-31T10:22:12.830Z,100142.94
2022-12-31T10:27:29.864Z,100149.09
2022-12-31T10:32:43.428Z,100149.97
2022-12-31T10:37:53.849Z,100148.09
2022-12-31T10:43:23.460Z,100135.00
2022-12-31T10:48:48.160Z,100135.94
2022-12-31T10:54:19.768Z,100138.84
2022-12-31T10:59:54.757Z,100116.97
2022-12-31T11:05:32.689Z,100121.41
2022-12-31T11:10:56.706Z,100104.78
2022-12-31T11:16:14.062Z,100106.63
2022-12-31T11:21:40.942Z,100092.59
2022-12-31T11:26:56.974Z,100083.06
2022-12-31T11:32:11.361Z,100075.09
2022-12-31T11:37:28.643Z,100075.09
2022-12-31T11:42:43.826Z,100084.72
2022-12-31T11:53:37.715Z,100083.81
2022-12-31T11:58:43.092Z,100067.97
2022-12-31T12:03:47.469Z,100058.38
2022-12-31T12:08:50.460Z,100064.63
2022-12-31T12:13:52.939Z,100054.19
2022-12-31T12:19:06.412Z,100048.31
2022-12-31T12:24:21.379Z,100067.94
2022-12-31T12:29:28.527Z,100083.97
2022-12-31T12:34:34.369Z,100078.91
2022-12-31T12:39:36.866Z,100084.19
2022-12-31T12:44:40.120Z,100062.44
2022-12-31T12:49:47.735Z,100066.25
2022-12-31T12:55:05.560Z,100070.94
2022-12-31T13:00:17.802Z,100045.75
2022-12-31T13:05:34.181Z,100049.53
2022-12-31T13:10:52.308Z,100041.06
2022-12-31T13:16:02.994Z,100042.28
2022-12-31T13:21:25.195Z,100054.69
2022-12-31T13:26:32.449Z,100055.72
2022-12-31T13:31:38.515Z,100048.97
2022-12-31T13:36:44.094Z,100041.38
2022-12-31T13:42:00.843Z,100015.97
2022-12-31T13:47:12.706Z,100029.28
2022-12-31T13:52:25.915Z,100045.28
2022-12-31T13:57:42.745Z,100049.97
2022-12-31T14:02:53.564Z,100035.25
2022-12-31T14:08:00.306Z,100042.50
2022-12-31T14:13:17.402Z,100045.28
2022-12-31T14:18:28.324Z,100059.41
2022-12-31T14:23:40.954Z,100075.28
2022-12-31T14:28:48.475Z,100085.25
2022-12-31T14:33:58.969Z,100083.56
2022-12-31T14:39:20.454Z,100111.91
2022-12-31T14:44:37.715Z,100116.53
2022-12-31T14:49:50.792Z,100122.13
2022-12-31T14:55:03.607Z,100118.75
2022-12-31T15:00:28.529Z,100120.34
2022-12-31T15:05:32.998Z,100113.13
2022-12-31T15:10:48.046Z,100138.50
2022-12-31T15:16:07.924Z,100131.38
2022-12-31T15:21:31.576Z,100123.22
2022-12-31T15:26:35.605Z,100152.94
2022-12-31T15:31:47.511Z,100150.25
2022-12-31T15:36:53.962Z,100136.16
2022-12-31T15:47:28.217Z,100138.84
2022-12-31T15:52:40.239Z,100145.09
2022-12-31T15:57:44.329Z,100149.47
2022-12-31T16:02:48.616Z,100146.75
2022-12-31T16:07:54.364Z,100149.25
2022-12-31T16:12:59.840Z,100144.91
2022-12-31T16:18:04.891Z,100145.84
2022-12-31T16:23:21.809Z,100166.22
2022-12-31T16:28:30.497Z,100169.84
2022-12-31T16:33:33.575Z,100154.09
2022-12-31T16:38:38.098Z,100184.25
2022-12-31T16:43:43.851Z,100194.94
2022-12-31T16:48:49.296Z,100185.31
2022-12-31T16:53:56.775Z,100199.41
2022-12-31T16:59:04.563Z,100197.59
2022-12-31T17:04:12.590Z,100194.06
2022-12-31T17:09:20.926Z,100191.41
2022-12-31T17:14:28.217Z,100190.50
2022-12-31T17:19:39.368Z,100191.25
2022-12-31T17:24:42.481Z,100187.56
2022-12-31T17:29:48.598Z,100178.78
2022-12-31T17:34:52.631Z,100184.94
2022-12-31T17:40:17.096Z,100216.56
2022-12-31T17:45:24.601Z,100202.47
2022-12-31T17:50:29.388Z,100217.38
2022-12-31T17:55:34.030Z,100216.38
2022-12-31T18:00:39.115Z,100220.75
2022-12-31T18:05:42.449Z,100232.81
2022-12-31T18:10:45.926Z,100252.00
2022-12-31T18:15:50.684Z,100255.47
2022-12-31T18:20:56.470Z,100264.06
2022-12-31T18:25:59.254Z,100256.97
2022-12-31T18:31:04.211Z,100233.06
2022-12-31T18:36:11.891Z,100219.72
2022-12-31T18:41:20.043Z,100215.13
2022-12-31T18:46:27.098Z,100222.84
2022-12-31T18:51:32.342Z,100202.34
2022-12-31T18:56:35.798Z,100203.94
2022-12-31T19:01:41.961Z,100201.13
2022-12-31T19:06:44.917Z,100198.38
2022-12-31T19:11:49.016Z,100201.75
2022-12-31T19:16:54.294Z,100195.81
2022-12-31T19:21:57.403Z,100202.22
2022-12-31T19:27:02.342Z,100226.84
2022-12-31T19:32:07.881Z,100200.28
2022-12-31T19:37:15.668Z,100196.63
2022-12-31T19:42:21.694Z,100180.66
2022-12-31T19:47:25.899Z,100204.28
2022-12-31T19:52:28.654Z,100201.69
2022-12-31T19:57:31.325Z,100198.22
2022-12-31T20:02:35.955Z,100203.56
2022-12-31T20:07:39.078Z,100204.84
2022-12-31T20:12:44.637Z,100205.34
2022-12-31T20:17:49.213Z,100204.00
2022-12-31T20:22:51.974Z,100216.66
2022-12-31T20:27:55.597Z,100239.09
2022-12-31T20:33:19.231Z,100241.22
2022-12-31T20:38:24.179Z,100253.00
2022-12-31T20:43:32.256Z,100235.50
2022-12-31T20:48:40.524Z,100243.50
2022-12-31T20:53:47.950Z,100227.88
2022-12-31T20:58:50.775Z,100217.41
2022-12-31T21:04:05.786Z,100226.31
2022-12-31T21:09:10.442Z,100239.59
2022-12-31T21:14:13.663Z,100237.88
2022-12-31T21:19:19.895Z,100244.06
2022-12-31T21:24:24.747Z,100247.72
2022-12-31T21:29:32.794Z,100245.03
2022-12-31T21:34:39.353Z,100245.97
2022-12-31T21:39:43.338Z,100248.50
2022-12-31T21:44:54.054Z,100225.38
2022-12-31T21:50:00.970Z,100222.56
2022-12-31T21:55:23.223Z,100225.06
2022-12-31T22:00:44.263Z,100233.88
2022-12-31T22:05:53.987Z,100234.72
2022-12-31T22:10:57.852Z,100228.63
2022-12-31T22:16:05.642Z,100230.44
2022-12-31T22:21:20.455Z,100224.38
2022-12-31T22:26:27.795Z,100213.78
2022-12-31T22:31:32.458Z,100231.38
2022-12-31T22:36:38.668Z,100231.38
2022-12-31T22:41:44.088Z,100248.19
2022-12-31T22:46:49.412Z,100246.44
2022-12-31T22:51:56.822Z,100250.00
2022-12-31T22:57:01.467Z,100265.03
2022-12-31T23:02:04.113Z,100271.41
2022-12-31T23:07:08.355Z,100278.44
2022-12-31T23:12:11.793Z,100282.09
2022-12-31T23:17:34.704Z,100272.44
2022-12-31T23:22:56.442Z,100276.78
2022-12-31T23:27:58.921Z,100280.31
2022-12-31T23:33:01.438Z,100272.44
2022-12-31T23:38:05.276Z,100280.34
2022-12-31T23:43:09.439Z,100275.94
2022-12-31T23:48:11.915Z,100271.50
2022-12-31T23:53:15.713Z,100274.09
2022-12-31T23:58:18.254Z,100274.78
